»·PEaware :: N716TH KBFL-KSBA

N716TH :: KBFL-KSBA

FLIGHT INFORMATION

Flight Status: Arrived
Operator: Privately registered:
United States
More flights under this callsign
Pilot: Danny R. (17997)
Aircraft: CESSNA 172 SKYHAWK
(C172)
More flights by this aircraft type
Origin: KBFL Meadows
United States
Destination: KSBA Santa Barbara Mun
United States
More flights between these airports :: More routes between these airports
Route: KBFL TAFTO KSBA
File this flight plan on PilotEdge
Remarks:
Altitude:
(Current/Filed)
4,500ft
Speed:
(Current/Filed)
100kts
Departed: 02-Feb-18 11:59 AM
Arrived: 02-Feb-18 12:54 PM
Distance/Time
Traveled:
72nm/0:55
Distance/Time
To Go:
Arrived

Flight Plot

Page will automatically refresh every two minutes.

Flight plan parsing failed; only flown route is shown


Map Options




Map Legend


Flown Route
Filed Route
Departure Airport
Arrival Airport
Navaid (VOR, NDB)
Fix

Horizontal Profiles

Position Reports

Time Latitude Longitude Heading Altitude Ground
Speed
02-Feb-18 11:42 35.428900 -119.046020 238 510ft 0kts
02-Feb-18 11:43 35.428900 -119.046020 238 510ft 0kts
02-Feb-18 11:44 35.428900 -119.046020 238 510ft 0kts
02-Feb-18 11:45 35.428900 -119.046020 238 510ft 0kts
02-Feb-18 11:46 35.428900 -119.046020 238 510ft 0kts
02-Feb-18 11:47 35.428900 -119.046020 238 510ft 0kts
02-Feb-18 11:48 35.428900 -119.046020 238 510ft 0kts
02-Feb-18 11:49 35.428900 -119.046020 238 510ft 0kts
02-Feb-18 11:50 35.428900 -119.046020 238 510ft 0kts
02-Feb-18 11:51 35.428900 -119.046020 238 510ft 0kts
02-Feb-18 11:52 35.428900 -119.046020 238 510ft 0kts
02-Feb-18 11:53 35.428900 -119.046020 238 510ft 0kts
02-Feb-18 11:54 35.428900 -119.046020 238 510ft 0kts
02-Feb-18 11:55 35.428900 -119.046020 238 510ft 0kts
02-Feb-18 11:56 35.428900 -119.046020 238 510ft 0kts
02-Feb-18 11:57 35.428900 -119.046020 238 510ft 0kts
02-Feb-18 11:58 35.428900 -119.046020 238 510ft 0kts
02-Feb-18 11:59 35.428718 -119.046259 204 510ft 1kts
02-Feb-18 12:00 35.427434 -119.046188 151 510ft 9kts
02-Feb-18 12:01 35.425853 -119.044667 218 510ft 0kts
02-Feb-18 12:02 35.425853 -119.044667 218 510ft 0kts
02-Feb-18 12:03 35.425710 -119.044793 222 510ft 0kts
02-Feb-18 12:04 35.425693 -119.044813 223 510ft 1kts
02-Feb-18 12:05 35.431577 -119.053271 316 685ft 73kts
02-Feb-18 12:06 35.445700 -119.070924 309 1452ft 78kts
02-Feb-18 12:07 35.445869 -119.093824 214 1841ft 91kts
02-Feb-18 12:08 35.425521 -119.084812 196 2437ft 87kts
02-Feb-18 12:09 35.404495 -119.094600 200 3235ft 79kts
02-Feb-18 12:10 35.385605 -119.105283 209 3859ft 85kts
02-Feb-18 12:11 35.365308 -119.121087 212 4473ft 87kts
02-Feb-18 12:12 35.340999 -119.138354 209 4541ft 114kts
02-Feb-18 12:13 35.318769 -119.166062 232 4524ft 111kts
02-Feb-18 12:14 35.301378 -119.192940 232 4454ft 93kts
02-Feb-18 12:15 35.285364 -119.215667 232 4442ft 83kts
02-Feb-18 12:16 35.270290 -119.237083 232 4447ft 85kts
02-Feb-18 12:17 35.254405 -119.259777 232 4443ft 89kts
02-Feb-18 12:18 35.237985 -119.283326 232 4442ft 95kts
02-Feb-18 12:19 35.220465 -119.308644 232 4446ft 98kts
02-Feb-18 12:20 35.202572 -119.334558 232 4442ft 100kts
02-Feb-18 12:21 35.184599 -119.360578 232 4441ft 100kts
02-Feb-18 12:22 35.164180 -119.383426 212 4439ft 102kts
02-Feb-18 12:23 35.139457 -119.400523 212 4441ft 102kts
02-Feb-18 12:24 35.114763 -119.417595 212 4438ft 102kts
02-Feb-18 12:25 35.092776 -119.432791 212 4437ft 102kts
02-Feb-18 12:26 35.064516 -119.436459 183 4465ft 101kts
02-Feb-18 12:27 35.038662 -119.435965 180 4768ft 89kts
02-Feb-18 12:28 35.019748 -119.445554 242 5068ft 80kts
02-Feb-18 12:29 35.004889 -119.465811 222 5358ft 81kts
02-Feb-18 12:30 34.986644 -119.481835 216 5648ft 80kts
02-Feb-18 12:31 34.968067 -119.496448 215 5939ft 79kts
02-Feb-18 12:32 34.947900 -119.505441 195 6227ft 79kts
02-Feb-18 12:33 34.927475 -119.515075 210 6436ft 86kts
02-Feb-18 12:34 34.904817 -119.530639 213 6437ft 95kts
02-Feb-18 12:35 34.884419 -119.545583 214 6483ft 91kts
02-Feb-18 12:36 34.862331 -119.561933 214 6481ft 93kts
02-Feb-18 12:37 34.840210 -119.578325 214 6475ft 93kts
02-Feb-18 12:38 34.817971 -119.594779 214 6473ft 93kts
02-Feb-18 12:39 34.795601 -119.611338 212 6413ft 95kts
02-Feb-18 12:40 34.773637 -119.627550 209 6410ft 91kts
02-Feb-18 12:41 34.755434 -119.640918 208 6840ft 70kts
02-Feb-18 12:42 34.736730 -119.654719 208 6942ft 89kts
02-Feb-18 12:43 34.715992 -119.670087 208 7030ft 87kts
02-Feb-18 12:44 34.694817 -119.685726 208 7026ft 91kts
02-Feb-18 12:45 34.673250 -119.701618 208 7024ft 90kts
02-Feb-18 12:46 34.653062 -119.716515 208 7020ft 80kts
02-Feb-18 12:47 34.634978 -119.729875 209 6675ft 77kts
02-Feb-18 12:48 34.616622 -119.743475 208 6030ft 78kts
02-Feb-18 12:49 34.598340 -119.756925 208 5367ft 76kts
02-Feb-18 12:50 34.581263 -119.770151 213 4790ft 68kts
02-Feb-18 12:51 34.565703 -119.783509 209 4403ft 69kts
02-Feb-18 12:52 34.549419 -119.796549 212 4199ft 70kts
02-Feb-18 12:53 34.532905 -119.809404 206 4000ft 70kts
02-Feb-18 12:54 34.515883 -119.823077 214 3750ft 74kts
02-Feb-18 12:55 34.501418 -119.840636 244 3429ft 76kts
02-Feb-18 12:56 34.488364 -119.856251 180 2964ft 69kts
02-Feb-18 12:57 34.467728 -119.852736 166 1984ft 76kts
02-Feb-18 12:58 34.447090 -119.845685 166 789ft 77kts
02-Feb-18 12:59 34.428895 -119.839776 163 17ft 45kts
02-Feb-18 13:00 34.426680 -119.838531 91 17ft 0kts
02-Feb-18 13:01 34.425598 -119.838005 165 17ft 16kts
02-Feb-18 13:02 34.422225 -119.836649 166 17ft 9kts
02-Feb-18 13:03 34.422407 -119.836307 357 17ft 0kts
02-Feb-18 13:04 34.422420 -119.836307 357 17ft 0kts
02-Feb-18 13:05 34.422420 -119.836307 357 17ft 0kts
02-Feb-18 13:06 34.422420 -119.836307 357 17ft 0kts
02-Feb-18 13:07 34.422420 -119.836307 357 17ft 0kts
02-Feb-18 13:08 34.422420 -119.836307 357 17ft 0kts
02-Feb-18 13:10 34.422420 -119.836307 357 17ft 0kts
02-Feb-18 13:10 34.422420 -119.836307 357 17ft 0kts
02-Feb-18 13:11 34.422420 -119.836307 357 17ft 0kts
02-Feb-18 13:12 34.422420 -119.836307 357 17ft 0kts
02-Feb-18 13:13 34.422420 -119.836307 357 17ft 0kts
02-Feb-18 13:14 34.422420 -119.836307 357 17ft 0kts
02-Feb-18 13:15 34.422420 -119.836307 357 17ft 0kts

Navigation Log

Ident Type
Flight plan parsing failed, navigation log unavailable